Markdale, Canada
Current Conditions -  °F | °C
As of 10:15 AM on Friday 31 Oct 2014 (Local Time) from CYBN Reporting Station
Light Rain Light Rain  
Wind Chill: 36°   Ceiling: 1000
Heat Index: 41°   Visibility: 6mi
Dew Point: 41°   Wind: 7mph
Humidity: 100%   Direction: 140°SE
Pressure: 29.92"   Gusts: NA
Location:  44.32°N, 80.65°W
Report Text: CYBN 311415Z AUTO 14006KT 6SM -RA OVC010 05/05 A2992
Loading
Personal Weather Stations






























Interactive Weather Map
Tropical Storm Tracking
New forecast layout! Learn more

10-Day Weather Forecast

Advertisements
Track Severe Weather on mobile